sensor_id;sensor_type;location;lat;lon;timestamp;pressure;altitude;pressure_sealevel;temperature;humidity
74529;BME280;63009;52.584;5.932;2023-04-25T00:00:46;101032.88;;;5.07;100.00
74529;BME280;63009;52.584;5.932;2023-04-25T00:03:11;101026.78;;;5.07;100.00
74529;BME280;63009;52.584;5.932;2023-04-25T00:05:37;101033.63;;;5.11;100.00
74529;BME280;63009;52.584;5.932;2023-04-25T00:08:03;100992.34;;;4.91;100.00
74529;BME280;63009;52.584;5.932;2023-04-25T00:10:29;101026.34;;;5.19;100.00
74529;BME280;63009;52.584;5.932;2023-04-25T00:12:54;101034.81;;;5.27;100.00
74529;BME280;63009;52.584;5.932;2023-04-25T00:15:19;101032.94;;;5.31;100.00
74529;BME280;63009;52.584;5.932;2023-04-25T00:17:45;101033.84;;;5.30;100.00
74529;BME280;63009;52.584;5.932;2023-04-25T00:20:11;101031.22;;;5.30;100.00
74529;BME280;63009;52.584;5.932;2023-04-25T00:22:36;101032.03;;;5.32;100.00
74529;BME280;63009;52.584;5.932;2023-04-25T00:25:04;101034.47;;;5.38;100.00
74529;BME280;63009;52.584;5.932;2023-04-25T00:27:29;101041.47;;;5.38;100.00
74529;BME280;63009;52.584;5.932;2023-04-25T00:29:55;101038.78;;;5.39;100.00
74529;BME280;63009;52.584;5.932;2023-04-25T00:32:20;101029.28;;;5.36;100.00
74529;BME280;63009;52.584;5.932;2023-04-25T00:34:45;101034.41;;;5.40;100.00
74529;BME280;63009;52.584;5.932;2023-04-25T00:37:11;101039.66;;;5.40;100.00
74529;BME280;63009;52.584;5.932;2023-04-25T00:39:36;101024.97;;;5.34;100.00
74529;BME280;63009;52.584;5.932;2023-04-25T00:42:02;101030.38;;;5.29;100.00
74529;BME280;63009;52.584;5.932;2023-04-25T00:44:29;101042.44;;;5.35;100.00
74529;BME280;63009;52.584;5.932;2023-04-25T00:46:54;101028.84;;;5.24;100.00
74529;BME280;63009;52.584;5.932;2023-04-25T00:49:20;101033.28;;;5.20;100.00
74529;BME280;63009;52.584;5.932;2023-04-25T00:51:45;101050.03;;;5.16;100.00
74529;BME280;63009;52.584;5.932;2023-04-25T00:54:12;101039.75;;;5.10;100.00
74529;BME280;63009;52.584;5.932;2023-04-25T00:56:37;101028.94;;;4.94;100.00
74529;BME280;63009;52.584;5.932;2023-04-25T00:59:03;101028.63;;;4.75;100.00
74529;BME280;63009;52.584;5.932;2023-04-25T01:01:28;101040.88;;;4.75;100.00
74529;BME280;63009;52.584;5.932;2023-04-25T01:03:55;101040.28;;;4.67;100.00
74529;BME280;63009;52.584;5.932;2023-04-25T01:06:21;101048.06;;;4.68;100.00
74529;BME280;63009;52.584;5.932;2023-04-25T01:08:47;101053.34;;;4.67;100.00
74529;BME280;63009;52.584;5.932;2023-04-25T01:11:12;101063.69;;;4.71;100.00
74529;BME280;63009;52.584;5.932;2023-04-25T01:13:38;101058.16;;;4.81;100.00
74529;BME280;63009;52.584;5.932;2023-04-25T01:16:03;101042.53;;;4.77;100.00
74529;BME280;63009;52.584;5.932;2023-04-25T01:18:29;101054.28;;;4.92;100.00
74529;BME280;63009;52.584;5.932;2023-04-25T01:20:54;101055.34;;;4.87;100.00
74529;BME280;63009;52.584;5.932;2023-04-25T01:23:21;101062.19;;;4.91;100.00
74529;BME280;63009;52.584;5.932;2023-04-25T01:25:47;101065.50;;;4.97;100.00
74529;BME280;63009;52.584;5.932;2023-04-25T01:28:13;101055.13;;;4.94;100.00
74529;BME280;63009;52.584;5.932;2023-04-25T01:30:38;101073.28;;;4.99;98.77
74529;BME280;63009;52.584;5.932;2023-04-25T01:33:04;101067.09;;;5.01;98.52
74529;BME280;63009;52.584;5.932;2023-04-25T01:35:30;101047.34;;;4.91;98.73
74529;BME280;63009;52.584;5.932;2023-04-25T01:37:57;101064.75;;;4.94;98.64
74529;BME280;63009;52.584;5.932;2023-04-25T01:40:24;101064.53;;;5.00;99.41
74529;BME280;63009;52.584;5.932;2023-04-25T01:42:50;101052.41;;;4.97;99.58
74529;BME280;63009;52.584;5.932;2023-04-25T01:45:16;101055.13;;;4.94;100.00
74529;BME280;63009;52.584;5.932;2023-04-25T01:47:41;101068.06;;;4.99;100.00
74529;BME280;63009;52.584;5.932;2023-04-25T01:50:09;101068.91;;;4.99;100.00
74529;BME280;63009;52.584;5.932;2023-04-25T01:52:34;101034.59;;;4.81;100.00
74529;BME280;63009;52.584;5.932;2023-04-25T01:55:01;101062.78;;;5.00;100.00
74529;BME280;63009;52.584;5.932;2023-04-25T01:57:26;101072.34;;;5.01;100.00
74529;BME280;63009;52.584;5.932;2023-04-25T01:59:59;101068.06;;;4.99;100.00
74529;BME280;63009;52.584;5.932;2023-04-25T02:02:25;101058.53;;;4.96;99.63
74529;BME280;63009;52.584;5.932;2023-04-25T02:04:51;101061.16;;;4.96;99.53
74529;BME280;63009;52.584;5.932;2023-04-25T02:07:16;101084.53;;;5.02;100.00
74529;BME280;63009;52.584;5.932;2023-04-25T02:09:41;101063.78;;;4.96;99.61
74529;BME280;63009;52.584;5.932;2023-04-25T02:12:09;101081.78;;;5.07;99.95
74529;BME280;63009;52.584;5.932;2023-04-25T02:14:34;101081.84;;;5.04;100.00
74529;BME280;63009;52.584;5.932;2023-04-25T02:16:59;101077.34;;;5.09;99.98
74529;BME280;63009;52.584;5.932;2023-04-25T02:19:25;101066.19;;;5.02;100.00
74529;BME280;63009;52.584;5.932;2023-04-25T02:21:50;101068.63;;;5.09;100.00
74529;BME280;63009;52.584;5.932;2023-04-25T02:24:15;101090.28;;;5.14;99.99
74529;BME280;63009;52.584;5.932;2023-04-25T02:26:41;101090.28;;;5.14;99.95
74529;BME280;63009;52.584;5.932;2023-04-25T02:29:06;101080.72;;;5.13;100.00
74529;BME280;63009;52.584;5.932;2023-04-25T02:31:32;101076.63;;;5.04;100.00
74529;BME280;63009;52.584;5.932;2023-04-25T02:33:57;101090.44;;;5.09;100.00
74529;BME280;63009;52.584;5.932;2023-04-25T02:36:22;101074.09;;;5.01;100.00
74529;BME280;63009;52.584;5.932;2023-04-25T02:38:49;101078.28;;;5.06;100.00
74529;BME280;63009;52.584;5.932;2023-04-25T02:41:14;101097.28;;;5.13;100.00
74529;BME280;63009;52.584;5.932;2023-04-25T02:43:39;101087.72;;;5.12;100.00
74529;BME280;63009;52.584;5.932;2023-04-25T02:46:04;101073.88;;;5.09;100.00
74529;BME280;63009;52.584;5.932;2023-04-25T02:48:30;101081.47;;;5.16;100.00
74529;BME280;63009;52.584;5.932;2023-04-25T02:50:55;101102.09;;;5.27;100.00
74529;BME280;63009;52.584;5.932;2023-04-25T02:53:20;101109.00;;;5.29;100.00
74529;BME280;63009;52.584;5.932;2023-04-25T02:55:45;101084.88;;;5.18;100.00
74529;BME280;63009;52.584;5.932;2023-04-25T02:58:11;101088.28;;;5.22;100.00
74529;BME280;63009;52.584;5.932;2023-04-25T03:00:36;101098.50;;;5.29;99.91
74529;BME280;63009;52.584;5.932;2023-04-25T03:03:01;101103.66;;;5.32;99.60
74529;BME280;63009;52.584;5.932;2023-04-25T03:05:26;101098.41;;;5.32;99.62
74529;BME280;63009;52.584;5.932;2023-04-25T03:07:52;101102.72;;;5.35;99.35
74529;BME280;63009;52.584;5.932;2023-04-25T03:10:17;101103.56;;;5.35;99.03
74529;BME280;63009;52.584;5.932;2023-04-25T03:12:43;101104.44;;;5.36;99.29
74529;BME280;63009;52.584;5.932;2023-04-25T03:15:09;101111.31;;;5.39;98.66
74529;BME280;63009;52.584;5.932;2023-04-25T03:17:34;101090.59;;;5.31;98.54
74529;BME280;63009;52.584;5.932;2023-04-25T03:20:00;101105.13;;;5.41;98.62
74529;BME280;63009;52.584;5.932;2023-04-25T03:22:26;101119.94;;;5.42;98.71
74529;BME280;63009;52.584;5.932;2023-04-25T03:24:51;101110.59;;;5.33;98.90
74529;BME280;63009;52.584;5.932;2023-04-25T03:27:17;101127.09;;;5.37;99.90
74529;BME280;63009;52.584;5.932;2023-04-25T03:29:42;101128.91;;;5.35;100.00
74529;BME280;63009;52.584;5.932;2023-04-25T03:32:07;101127.19;;;5.34;100.00
74529;BME280;63009;52.584;5.932;2023-04-25T03:34:33;101112.56;;;5.27;98.60
74529;BME280;63009;52.584;5.932;2023-04-25T03:36:58;101133.28;;;5.34;97.17
74529;BME280;63009;52.584;5.932;2023-04-25T03:39:25;101130.56;;;5.38;98.05
74529;BME280;63009;52.584;5.932;2023-04-25T03:41:50;101142.91;;;5.34;97.27
74529;BME280;63009;52.584;5.932;2023-04-25T03:44:15;101136.81;;;5.33;97.05
74529;BME280;63009;52.584;5.932;2023-04-25T03:46:40;101135.16;;;5.31;97.03
74529;BME280;63009;52.584;5.932;2023-04-25T03:49:06;101126.53;;;5.27;97.53
74529;BME280;63009;52.584;5.932;2023-04-25T03:51:31;101141.34;;;5.28;97.60
74529;BME280;63009;52.584;5.932;2023-04-25T03:53:56;101122.44;;;5.19;98.50
74529;BME280;63009;52.584;5.932;2023-04-25T03:56:22;101138.72;;;5.28;97.81
74529;BME280;63009;52.584;5.932;2023-04-25T03:58:47;101124.34;;;5.14;97.96
74529;BME280;63009;52.584;5.932;2023-04-25T04:01:13;101154.44;;;5.28;98.25
74529;BME280;63009;52.584;5.932;2023-04-25T04:03:38;101144.25;;;5.19;97.91
74529;BME280;63009;52.584;5.932;2023-04-25T04:06:04;101153.00;;;5.18;99.23
74529;BME280;63009;52.584;5.932;2023-04-25T04:08:31;101149.59;;;5.16;98.60
74529;BME280;63009;52.584;5.932;2023-04-25T04:10:57;101155.56;;;5.20;98.42
74529;BME280;63009;52.584;5.932;2023-04-25T04:13:22;101150.69;;;5.09;97.37
74529;BME280;63009;52.584;5.932;2023-04-25T04:15:47;101160.13;;;5.15;97.21
74529;BME280;63009;52.584;5.932;2023-04-25T04:18:13;101165.34;;;5.15;97.45
74529;BME280;63009;52.584;5.932;2023-04-25T04:20:38;101167.97;;;5.15;97.85
74529;BME280;63009;52.584;5.932;2023-04-25T04:23:03;101118.34;;;4.82;98.21
74529;BME280;63009;52.584;5.932;2023-04-25T04:25:29;101164.56;;;5.13;98.13
74529;BME280;63009;52.584;5.932;2023-04-25T04:27:55;101150.97;;;5.00;98.54
74529;BME280;63009;52.584;5.932;2023-04-25T04:30:22;101175.88;;;5.13;99.06
74529;BME280;63009;52.584;5.932;2023-04-25T04:32:50;101171.59;;;5.11;98.18
74529;BME280;63009;52.584;5.932;2023-04-25T04:35:15;101176.94;;;5.07;97.13
74529;BME280;63009;52.584;5.932;2023-04-25T04:37:40;101168.41;;;5.01;96.22
74529;BME280;63009;52.584;5.932;2023-04-25T04:40:06;101172.81;;;4.99;96.36
74529;BME280;63009;52.584;5.932;2023-04-25T04:42:32;101194.28;;;5.12;97.18
74529;BME280;63009;52.584;5.932;2023-04-25T04:44:57;101175.34;;;5.02;97.22
74529;BME280;63009;52.584;5.932;2023-04-25T04:47:23;101197.69;;;5.14;96.86
74529;BME280;63009;52.584;5.932;2023-04-25T04:49:48;101192.63;;;5.09;94.53
74529;BME280;63009;52.584;5.932;2023-04-25T04:52:16;101189.91;;;5.12;94.60
74529;BME280;63009;52.584;5.932;2023-04-25T04:54:42;101187.22;;;5.14;94.67
74529;BME280;63009;52.584;5.932;2023-04-25T04:57:07;101191.66;;;5.12;95.22
74529;BME280;63009;52.584;5.932;2023-04-25T04:59:32;101203.81;;;5.14;94.59
74529;BME280;63009;52.584;5.932;2023-04-25T05:01:57;101190.03;;;5.07;94.43
74529;BME280;63009;52.584;5.932;2023-04-25T05:04:23;101199.50;;;5.12;95.32
74529;BME280;63009;52.584;5.932;2023-04-25T05:06:48;101185.72;;;5.05;95.85
74529;BME280;63009;52.584;5.932;2023-04-25T05:09:13;101202.94;;;5.14;96.00
74529;BME280;63009;52.584;5.932;2023-04-25T05:11:39;101211.59;;;5.16;96.04
74529;BME280;63009;52.584;5.932;2023-04-25T05:14:04;101219.38;;;5.19;96.57
74529;BME280;63009;52.584;5.932;2023-04-25T05:16:29;101195.28;;;5.07;96.50
74529;BME280;63009;52.584;5.932;2023-04-25T05:18:54;101215.81;;;5.21;96.43
74529;BME280;63009;52.584;5.932;2023-04-25T05:21:20;101200.22;;;5.17;95.90
74529;BME280;63009;52.584;5.932;2023-04-25T05:23:45;101230.28;;;5.33;95.67
74529;BME280;63009;52.584;5.932;2023-04-25T05:26:10;101226.09;;;5.27;95.08
74529;BME280;63009;52.584;5.932;2023-04-25T05:28:42;101235.38;;;5.39;94.87
74529;BME280;63009;52.584;5.932;2023-04-25T05:31:08;101215.47;;;5.32;95.13
74529;BME280;63009;52.584;5.932;2023-04-25T05:33:34;101229.13;;;5.43;94.88
74529;BME280;63009;52.584;5.932;2023-04-25T05:36:00;101245.38;;;5.54;95.41
74529;BME280;63009;52.584;5.932;2023-04-25T05:38:25;101243.47;;;5.59;94.40
74529;BME280;63009;52.584;5.932;2023-04-25T05:40:51;101249.47;;;5.91;93.43
74529;BME280;63009;52.584;5.932;2023-04-25T05:43:16;101248.75;;;6.39;91.95
74529;BME280;63009;52.584;5.932;2023-04-25T05:45:41;101259.34;;;6.61;86.46
74529;BME280;63009;52.584;5.932;2023-04-25T05:48:06;101259.28;;;6.87;84.56
74529;BME280;63009;52.584;5.932;2023-04-25T05:50:32;101262.31;;;7.00;82.30
74529;BME280;63009;52.584;5.932;2023-04-25T05:52:57;101270.66;;;7.34;82.83
74529;BME280;63009;52.584;5.932;2023-04-25T05:55:22;101266.03;;;7.41;84.33
74529;BME280;63009;52.584;5.932;2023-04-25T05:57:47;101274.25;;;7.32;84.27
74529;BME280;63009;52.584;5.932;2023-04-25T06:00:13;101270.53;;;7.14;82.66
74529;BME280;63009;52.584;5.932;2023-04-25T06:02:41;101264.16;;;6.98;80.48
74529;BME280;63009;52.584;5.932;2023-04-25T06:05:06;101253.16;;;6.63;80.88
74529;BME280;63009;52.584;5.932;2023-04-25T06:07:32;101272.75;;;6.78;82.86
74529;BME280;63009;52.584;5.932;2023-04-25T06:09:57;101279.25;;;6.68;83.91
74529;BME280;63009;52.584;5.932;2023-04-25T06:12:23;101278.50;;;6.64;84.83
74529;BME280;63009;52.584;5.932;2023-04-25T06:14:48;101255.88;;;6.35;84.08
74529;BME280;63009;52.584;5.932;2023-04-25T06:17:13;101274.84;;;6.43;84.49
74529;BME280;63009;52.584;5.932;2023-04-25T06:19:39;101271.53;;;6.38;84.92
74529;BME280;63009;52.584;5.932;2023-04-25T06:22:04;101276.78;;;6.38;86.06
74529;BME280;63009;52.584;5.932;2023-04-25T06:24:30;101289.78;;;6.41;84.67
74529;BME280;63009;52.584;5.932;2023-04-25T06:26:55;101288.88;;;6.42;85.05
74529;BME280;63009;52.584;5.932;2023-04-25T06:29:20;101290.81;;;6.37;84.26
74529;BME280;63009;52.584;5.932;2023-04-25T06:31:46;101305.69;;;6.37;84.54
74529;BME280;63009;52.584;5.932;2023-04-25T06:34:11;101295.31;;;6.34;86.31
74529;BME280;63009;52.584;5.932;2023-04-25T06:36:36;101299.53;;;6.38;85.61
74529;BME280;63009;52.584;5.932;2023-04-25T06:39:02;101292.81;;;6.29;85.54
74529;BME280;63009;52.584;5.932;2023-04-25T06:41:27;101309.28;;;6.34;82.79
74529;BME280;63009;52.584;5.932;2023-04-25T06:43:53;101314.38;;;6.39;80.73
74529;BME280;63009;52.584;5.932;2023-04-25T06:46:18;101308.66;;;6.52;82.15
74529;BME280;63009;52.584;5.932;2023-04-25T06:48:44;101308.81;;;6.73;82.68
74529;BME280;63009;52.584;5.932;2023-04-25T06:51:09;101335.31;;;6.92;80.26
74529;BME280;63009;52.584;5.932;2023-04-25T06:53:35;101335.56;;;6.59;85.40
74529;BME280;63009;52.584;5.932;2023-04-25T06:56:00;101328.81;;;6.25;87.25
74529;BME280;63009;52.584;5.932;2023-04-25T06:58:26;101305.84;;;6.06;88.07
74529;BME280;63009;52.584;5.932;2023-04-25T07:00:51;101312.31;;;5.95;89.40
74529;BME280;63009;52.584;5.932;2023-04-25T07:03:16;101326.91;;;6.03;90.18
74529;BME280;63009;52.584;5.932;2023-04-25T07:05:42;101313.16;;;5.96;90.53
74529;BME280;63009;52.584;5.932;2023-04-25T07:08:07;101299.47;;;5.85;91.03
74529;BME280;63009;52.584;5.932;2023-04-25T07:10:32;101315.72;;;5.98;89.79
74529;BME280;63009;52.584;5.932;2023-04-25T07:12:57;101321.88;;;5.97;90.96
74529;BME280;63009;52.584;5.932;2023-04-25T07:15:23;101335.31;;;6.14;90.59
74529;BME280;63009;52.584;5.932;2023-04-25T07:17:48;101334.31;;;6.18;89.95
74529;BME280;63009;52.584;5.932;2023-04-25T07:20:13;101349.50;;;6.61;89.88
74529;BME280;63009;52.584;5.932;2023-04-25T07:22:38;101349.03;;;7.00;86.86
74529;BME280;63009;52.584;5.932;2023-04-25T07:25:04;101324.06;;;7.36;86.01
74529;BME280;63009;52.584;5.932;2023-04-25T07:27:30;101348.47;;;7.85;85.73
74529;BME280;63009;52.584;5.932;2023-04-25T07:29:56;101362.13;;;7.95;82.03
74529;BME280;63009;52.584;5.932;2023-04-25T07:32:22;101331.44;;;8.17;79.98
74529;BME280;63009;52.584;5.932;2023-04-25T07:34:47;101358.75;;;8.57;80.55
74529;BME280;63009;52.584;5.932;2023-04-25T07:37:13;101353.44;;;8.99;78.98
74529;BME280;63009;52.584;5.932;2023-04-25T07:39:39;101353.28;;;9.22;76.15
74529;BME280;63009;52.584;5.932;2023-04-25T07:42:04;101345.31;;;9.24;75.09
74529;BME280;63009;52.584;5.932;2023-04-25T07:44:33;101354.81;;;9.85;75.17
74529;BME280;63009;52.584;5.932;2023-04-25T07:47:03;101327.94;;;10.12;72.36
74529;BME280;63009;52.584;5.932;2023-04-25T07:49:29;101352.28;;;10.55;71.92
74529;BME280;63009;52.584;5.932;2023-04-25T07:51:54;101340.09;;;10.35;70.40
74529;BME280;63009;52.584;5.932;2023-04-25T07:54:19;101345.53;;;10.32;69.41
74529;BME280;63009;52.584;5.932;2023-04-25T07:56:45;101362.78;;;10.39;69.72
74529;BME280;63009;52.584;5.932;2023-04-25T07:59:10;101364.50;;;10.92;72.07
74529;BME280;63009;52.584;5.932;2023-04-25T08:01:35;101364.00;;;11.19;69.32
74529;BME280;63009;52.584;5.932;2023-04-25T08:04:01;101368.13;;;11.57;68.74
74529;BME280;63009;52.584;5.932;2023-04-25T08:06:26;101367.75;;;11.81;65.86
74529;BME280;63009;52.584;5.932;2023-04-25T08:08:52;101368.78;;;11.94;60.50
74529;BME280;63009;52.584;5.932;2023-04-25T08:11:17;101369.53;;;11.96;59.23
74529;BME280;63009;52.584;5.932;2023-04-25T08:13:42;101366.19;;;12.40;61.42
74529;BME280;63009;52.584;5.932;2023-04-25T08:16:08;101381.50;;;12.35;60.09
74529;BME280;63009;52.584;5.932;2023-04-25T08:18:33;101385.28;;;12.15;60.38
74529;BME280;63009;52.584;5.932;2023-04-25T08:20:58;101383.53;;;12.45;61.13
74529;BME280;63009;52.584;5.932;2023-04-25T08:23:23;101376.38;;;12.16;56.31
74529;BME280;63009;52.584;5.932;2023-04-25T08:25:49;101393.13;;;12.16;57.34
74529;BME280;63009;52.584;5.932;2023-04-25T08:28:14;101395.78;;;12.32;57.93
74529;BME280;63009;52.584;5.932;2023-04-25T08:30:40;101399.34;;;12.47;56.85
74529;BME280;63009;52.584;5.932;2023-04-25T08:33:05;101398.84;;;12.56;57.11
74529;BME280;63009;52.584;5.932;2023-04-25T08:35:30;101397.50;;;12.63;57.64
74529;BME280;63009;52.584;5.932;2023-04-25T08:37:56;101411.44;;;12.83;56.84
74529;BME280;63009;52.584;5.932;2023-04-25T08:40:22;101402.44;;;12.55;53.58
74529;BME280;63009;52.584;5.932;2023-04-25T08:42:53;101413.97;;;12.07;52.92
74529;BME280;63009;52.584;5.932;2023-04-25T08:45:20;101424.13;;;11.50;58.66
74529;BME280;63009;52.584;5.932;2023-04-25T08:47:45;101432.47;;;11.42;59.72
74529;BME280;63009;52.584;5.932;2023-04-25T08:50:10;101421.75;;;11.11;59.07
74529;BME280;63009;52.584;5.932;2023-04-25T08:52:43;101433.19;;;10.77;60.62
74529;BME280;63009;52.584;5.932;2023-04-25T08:55:09;101432.78;;;10.31;63.36
74529;BME280;63009;52.584;5.932;2023-04-25T08:57:35;101416.59;;;10.56;68.10
74529;BME280;63009;52.584;5.932;2023-04-25T09:00:01;101418.94;;;10.79;65.84
74529;BME280;63009;52.584;5.932;2023-04-25T09:02:27;101424.19;;;11.15;62.87
74529;BME280;63009;52.584;5.932;2023-04-25T09:04:53;101431.56;;;11.59;62.24
74529;BME280;63009;52.584;5.932;2023-04-25T09:07:19;101429.38;;;12.00;60.15
74529;BME280;63009;52.584;5.932;2023-04-25T09:09:46;101441.09;;;12.28;56.95
74529;BME280;63009;52.584;5.932;2023-04-25T09:12:12;101441.00;;;12.45;58.03
74529;BME280;63009;52.584;5.932;2023-04-25T09:14:37;101449.06;;;12.89;60.06
74529;BME280;63009;52.584;5.932;2023-04-25T09:17:04;101456.81;;;12.46;54.68
74529;BME280;63009;52.584;5.932;2023-04-25T09:19:35;101463.00;;;11.65;57.83
74529;BME280;63009;52.584;5.932;2023-04-25T09:22:03;101475.28;;;11.33;60.47
74529;BME280;63009;52.584;5.932;2023-04-25T09:26:57;101468.53;;;10.38;58.73
74529;BME280;63009;52.584;5.932;2023-04-25T09:29:30;101468.75;;;10.52;61.73
74529;BME280;63009;52.584;5.932;2023-04-25T09:32:23;101481.03;;;10.89;61.50
74529;BME280;63009;52.584;5.932;2023-04-25T09:34:52;101463.13;;;10.94;62.73
74529;BME280;63009;52.584;5.932;2023-04-25T09:37:28;101484.69;;;11.56;62.52
74529;BME280;63009;52.584;5.932;2023-04-25T09:39:56;101486.94;;;11.64;61.18
74529;BME280;63009;52.584;5.932;2023-04-25T09:42:23;101483.34;;;11.65;61.29
74529;BME280;63009;52.584;5.932;2023-04-25T09:44:51;101469.44;;;11.44;59.47
74529;BME280;63009;52.584;5.932;2023-04-25T09:47:17;101510.13;;;11.07;58.29
74529;BME280;63009;52.584;5.932;2023-04-25T09:49:43;101478.19;;;11.28;59.84
74529;BME280;63009;52.584;5.932;2023-04-25T09:52:13;101483.44;;;11.46;57.45
74529;BME280;63009;52.584;5.932;2023-04-25T09:54:38;101489.97;;;11.73;59.65
74529;BME280;63009;52.584;5.932;2023-04-25T09:57:23;101477.69;;;11.38;62.55
74529;BME280;63009;52.584;5.932;2023-04-25T09:59:53;101516.03;;;11.81;61.05
74529;BME280;63009;52.584;5.932;2023-04-25T10:02:23;101498.84;;;12.05;57.52
74529;BME280;63009;52.584;5.932;2023-04-25T10:04:50;101493.25;;;12.11;61.80
74529;BME280;63009;52.584;5.932;2023-04-25T10:07:18;101500.00;;;12.33;58.41
74529;BME280;63009;52.584;5.932;2023-04-25T10:09:47;101507.09;;;12.32;59.12
74529;BME280;63009;52.584;5.932;2023-04-25T10:12:15;101503.41;;;12.19;60.72
74529;BME280;63009;52.584;5.932;2023-04-25T10:14:41;101481.13;;;11.90;60.41
74529;BME280;63009;52.584;5.932;2023-04-25T10:17:09;101519.56;;;11.64;59.62
74529;BME280;63009;52.584;5.932;2023-04-25T10:19:35;101524.84;;;11.81;56.13
74529;BME280;63009;52.584;5.932;2023-04-25T10:22:27;101519.38;;;12.02;59.29
74529;BME280;63009;52.584;5.932;2023-04-25T10:24:55;101506.31;;;12.14;58.28
74529;BME280;63009;52.584;5.932;2023-04-25T10:27:21;101486.81;;;12.00;58.71
74529;BME280;63009;52.584;5.932;2023-04-25T10:30:00;101527.91;;;12.71;59.85
74529;BME280;63009;52.584;5.932;2023-04-25T10:32:25;101527.03;;;12.71;57.79
74529;BME280;63009;52.584;5.932;2023-04-25T10:34:50;101529.88;;;12.84;55.16
74529;BME280;63009;52.584;5.932;2023-04-25T10:37:15;101536.63;;;12.73;53.73
74529;BME280;63009;52.584;5.932;2023-04-25T10:39:41;101506.81;;;12.05;56.89
74529;BME280;63009;52.584;5.932;2023-04-25T10:42:07;101530.94;;;11.49;59.35
74529;BME280;63009;52.584;5.932;2023-04-25T10:44:33;101505.16;;;11.35;60.67
74529;BME280;63009;52.584;5.932;2023-04-25T10:47:00;101507.22;;;11.30;59.80
74529;BME280;63009;52.584;5.932;2023-04-25T10:49:36;101535.66;;;11.25;59.00
74529;BME280;63009;52.584;5.932;2023-04-25T10:52:19;101514.91;;;11.17;59.00
74529;BME280;63009;52.584;5.932;2023-04-25T10:54:54;101546.25;;;11.08;62.81
74529;BME280;63009;52.584;5.932;2023-04-25T10:57:37;101554.41;;;11.03;63.31
74529;BME280;63009;52.584;5.932;2023-04-25T11:00:09;101555.63;;;11.32;64.61
74529;BME280;63009;52.584;5.932;2023-04-25T11:02:52;101557.94;;;11.21;64.21
74529;BME280;63009;52.584;5.932;2023-04-25T11:05:36;101555.97;;;10.71;63.51
74529;BME280;63009;52.584;5.932;2023-04-25T11:08:02;101560.47;;;10.31;65.17
74529;BME280;63009;52.584;5.932;2023-04-25T11:10:29;101571.09;;;10.09;66.46
74529;BME280;63009;52.584;5.932;2023-04-25T11:12:55;101583.59;;;9.65;69.24
74529;BME280;63009;52.584;5.932;2023-04-25T11:15:21;101574.25;;;9.58;70.54
74529;BME280;63009;52.584;5.932;2023-04-25T11:17:46;101582.56;;;9.27;71.27
74529;BME280;63009;52.584;5.932;2023-04-25T11:20:15;101577.97;;;9.32;71.17
74529;BME280;63009;52.584;5.932;2023-04-25T11:22:41;101574.41;;;9.33;70.42
74529;BME280;63009;52.584;5.932;2023-04-25T11:25:11;101581.59;;;9.50;68.93
74529;BME280;63009;52.584;5.932;2023-04-25T11:27:59;101584.72;;;9.60;69.24
74529;BME280;63009;52.584;5.932;2023-04-25T11:30:28;101579.63;;;9.55;71.04
74529;BME280;63009;52.584;5.932;2023-04-25T11:32:55;101589.22;;;9.58;72.12
74529;BME280;63009;52.584;5.932;2023-04-25T11:35:21;101587.59;;;9.33;69.56
74529;BME280;63009;52.584;5.932;2023-04-25T11:37:48;101587.59;;;9.33;68.36
74529;BME280;63009;52.584;5.932;2023-04-25T11:40:14;101592.81;;;9.35;64.88
74529;BME280;63009;52.584;5.932;2023-04-25T11:42:43;101588.59;;;9.51;63.67
74529;BME280;63009;52.584;5.932;2023-04-25T11:45:10;101574.19;;;9.60;64.69
74529;BME280;63009;52.584;5.932;2023-04-25T11:47:36;101592.31;;;9.67;66.27
74529;BME280;63009;52.584;5.932;2023-04-25T11:50:03;101589.94;;;9.81;64.19
74529;BME280;63009;52.584;5.932;2023-04-25T11:52:42;101581.19;;;10.20;66.48
74529;BME280;63009;52.584;5.932;2023-04-25T11:55:16;101589.75;;;10.64;63.93
74529;BME280;63009;52.584;5.932;2023-04-25T11:57:43;101591.59;;;10.81;59.83
74529;BME280;63009;52.584;5.932;2023-04-25T12:00:10;101594.59;;;10.92;61.57
74529;BME280;63009;52.584;5.932;2023-04-25T12:02:36;101600.06;;;11.07;60.75
74529;BME280;63009;52.584;5.932;2023-04-25T12:05:02;101609.13;;;11.20;62.39
74529;BME280;63009;52.584;5.932;2023-04-25T12:07:31;101610.19;;;10.80;67.46
74529;BME280;63009;52.584;5.932;2023-04-25T12:09:56;101615.31;;;10.64;68.14
74529;BME280;63009;52.584;5.932;2023-04-25T12:12:21;101625.41;;;10.56;69.55
74529;BME280;63009;52.584;5.932;2023-04-25T12:14:51;101622.78;;;10.56;67.80
74529;BME280;63009;52.584;5.932;2023-04-25T12:17:17;101614.16;;;10.32;67.51
74529;BME280;63009;52.584;5.932;2023-04-25T12:19:42;101629.56;;;10.41;65.87
74529;BME280;63009;52.584;5.932;2023-04-25T12:22:23;101620.94;;;10.17;66.92
74529;BME280;63009;52.584;5.932;2023-04-25T12:24:49;101629.56;;;10.22;64.23
74529;BME280;63009;52.584;5.932;2023-04-25T12:27:15;101623.59;;;10.37;61.29
74529;BME280;63009;52.584;5.932;2023-04-25T12:29:50;101613.28;;;10.70;62.86
74529;BME280;63009;52.584;5.932;2023-04-25T12:32:16;101640.19;;;10.79;60.43
74529;BME280;63009;52.584;5.932;2023-04-25T12:34:42;101641.66;;;10.86;60.59
74529;BME280;63009;52.584;5.932;2023-04-25T12:37:07;101636.63;;;10.98;63.36
74529;BME280;63009;52.584;5.932;2023-04-25T12:39:33;101623.53;;;11.14;63.26
74529;BME280;63009;52.584;5.932;2023-04-25T12:41:58;101637.56;;;11.34;60.96
74529;BME280;63009;52.584;5.932;2023-04-25T12:44:24;101633.28;;;11.31;60.36
74529;BME280;63009;52.584;5.932;2023-04-25T12:46:50;101640.84;;;11.39;65.56
74529;BME280;63009;52.584;5.932;2023-04-25T12:49:16;101626.53;;;11.43;62.21
74529;BME280;63009;52.584;5.932;2023-04-25T12:51:41;101630.31;;;11.56;61.54
74529;BME280;63009;52.584;5.932;2023-04-25T12:54:07;101627.94;;;11.67;59.11